Time;durP1;ratioP1;P1;durP2;ratioP2;P2;SDS_P1;SDS_P2;PMS_P1;PMS_P2;Temp;Humidity;BMP_temperature;BMP_pressure;BME280_temperature;BME280_humidity;BME280_pressure;Samples;Min_cycle;Max_cycle;Signal;HPM_P1;HPM_P2
2021/06/29 00:01:58;;;;;;;4.88;1.30;;;;;;;27.54;37.65;100842.53;5053982;28;20053;-64
2021/06/29 00:04:24;;;;;;;4.40;1.42;;;;;;;27.54;37.71;100842.53;5053793;28;20053;-64
2021/06/29 00:06:51;;;;;;;7.03;2.10;;;;;;;27.56;37.73;100837.78;5053947;28;20049;-63
2021/06/29 00:09:17;;;;;;;12.57;3.28;;;;;;;27.54;37.75;100831.75;5053758;28;20052;-63
2021/06/29 00:11:44;;;;;;;6.60;3.55;;;;;;;27.53;37.78;100828.22;5035990;28;20528;-63
2021/06/29 00:14:11;;;;;;;7.70;4.60;;;;;;;27.53;37.81;100825.53;5033616;28;20049;-64
2021/06/29 00:16:37;;;;;;;6.25;3.90;;;;;;;27.54;37.89;100829.06;5033357;28;20049;-64
2021/06/29 00:19:04;;;;;;;5.70;3.30;;;;;;;27.53;38.06;100830.09;5033606;28;20490;-64
2021/06/29 00:21:31;;;;;;;5.82;2.83;;;;;;;27.53;38.09;100833.63;5033590;28;20041;-63
2021/06/29 00:24:01;;;;;;;3.65;2.15;;;;;;;27.51;38.36;100822.19;5033618;28;20046;-63
2021/06/29 00:26:27;;;;;;;7.55;2.85;;;;;;;27.51;38.15;100815.97;5033447;28;20113;-64
2021/06/29 00:28:54;;;;;;;8.75;3.40;;;;;;;27.52;38.22;100829.25;5033681;28;20051;-64
2021/06/29 00:31:20;;;;;;;7.28;3.28;;;;;;;27.52;38.16;100828.44;5033374;28;20042;-63
2021/06/29 00:33:48;;;;;;;7.35;3.03;;;;;;;27.52;38.23;100828.44;5033378;28;20045;-63
2021/06/29 00:36:15;;;;;;;8.68;2.90;;;;;;;27.50;38.28;100827.78;5033375;28;20050;-63
2021/06/29 00:38:43;;;;;;;7.32;2.58;;;;;;;27.51;38.40;100826.75;5033312;28;20049;-64
2021/06/29 00:41:11;;;;;;;10.00;2.50;;;;;;;27.49;38.57;100824.28;5033179;28;20052;-63
2021/06/29 00:43:37;;;;;;;5.97;2.13;;;;;;;27.48;38.75;100817.22;5033123;28;20111;-63
2021/06/29 00:46:04;;;;;;;6.88;2.97;;;;;;;27.47;38.88;100820.94;5033278;28;20041;-64
2021/06/29 00:48:31;;;;;;;5.65;1.85;;;;;;;27.46;38.93;100813.06;5033150;28;20045;-63
2021/06/29 00:50:58;;;;;;;9.18;1.80;;;;;;;27.44;38.96;100817.78;5033176;28;20132;-63
2021/06/29 00:53:25;;;;;;;5.43;2.13;;;;;;;27.42;39.20;100822.56;5032840;28;20049;-63
2021/06/29 00:55:52;;;;;;;2.42;1.77;;;;;;;27.37;39.43;100813.16;5033176;28;20041;-64
2021/06/29 00:58:19;;;;;;;3.90;1.50;;;;;;;27.37;39.49;100810.47;5032930;28;20050;-63
2021/06/29 01:00:46;;;;;;;2.35;1.50;;;;;;;27.36;39.56;100807.97;5032865;28;20072;-63
2021/06/29 01:03:12;;;;;;;3.20;1.55;;;;;;;27.36;39.72;100813.34;5032812;28;20049;-63
2021/06/29 01:05:41;;;;;;;3.95;1.30;;;;;;;27.35;39.55;100809.84;5032958;28;20486;-63
2021/06/29 01:08:07;;;;;;;3.10;1.17;;;;;;;27.34;39.52;100815.44;5032897;28;20045;-63
2021/06/29 01:10:34;;;;;;;1.85;0.90;;;;;;;27.31;39.63;100803.19;5032663;28;20056;-64
2021/06/29 01:13:01;;;;;;;2.42;1.40;;;;;;;27.29;39.52;100802.53;5032601;28;20046;-63
2021/06/29 01:15:28;;;;;;;2.97;1.20;;;;;;;27.29;39.59;100815.19;5032654;28;20064;-63
2021/06/29 01:17:57;;;;;;;2.33;0.93;;;;;;;27.26;39.62;100807.47;5032584;28;20053;-63
2021/06/29 01:20:27;;;;;;;4.43;1.48;;;;;;;27.24;39.83;100807.69;5032551;28;20056;-63
2021/06/29 01:23:06;;;;;;;3.58;1.50;;;;;;;27.21;39.96;100816.13;5032693;28;20041;-63
2021/06/29 01:25:33;;;;;;;3.28;1.42;;;;;;;27.20;40.55;100817.19;5032454;28;20046;-64
2021/06/29 01:33:22;;;;;;;2.55;1.25;;;;;;;27.15;40.80;100808.88;5032456;28;20462;-64
2021/06/29 01:35:49;;;;;;;3.00;1.25;;;;;;;27.12;40.83;100806.53;5032470;28;20057;-63
2021/06/29 01:38:20;;;;;;;3.15;1.50;;;;;;;27.10;40.95;100808.63;5032442;28;20955;-64
2021/06/29 01:40:47;;;;;;;3.30;1.40;;;;;;;27.08;41.00;100816.06;5032307;28;20049;-64
2021/06/29 01:43:16;;;;;;;2.47;1.48;;;;;;;27.05;41.09;100807.31;5031901;28;20050;-64
2021/06/29 01:45:45;;;;;;;2.70;1.40;;;;;;;27.04;41.08;100805.66;5032335;28;20075;-63
2021/06/29 01:48:22;;;;;;;4.90;1.40;;;;;;;26.99;41.00;100800.00;5032397;28;20453;-63
2021/06/29 01:50:53;;;;;;;5.80;1.30;;;;;;;26.94;41.29;100790.88;5032340;28;20048;-63
2021/06/29 01:53:20;;;;;;;3.53;1.42;;;;;;;26.95;41.28;100789.84;5032261;28;20050;-64
2021/06/29 01:55:47;;;;;;;3.88;1.42;;;;;;;26.91;41.36;100789.41;5032198;28;20049;-64
2021/06/29 01:58:20;;;;;;;5.93;2.13;;;;;;;26.90;41.62;100787.72;5032220;28;20068;-64
2021/06/29 02:00:47;;;;;;;5.75;2.13;;;;;;;26.87;41.43;100786.25;5032168;28;20046;-63
2021/06/29 02:03:14;;;;;;;5.10;2.20;;;;;;;26.85;41.50;100791.00;5032283;28;20042;-63
2021/06/29 02:05:41;;;;;;;4.40;1.88;;;;;;;26.81;41.47;100784.34;5032137;28;20054;-64
2021/06/29 02:08:07;;;;;;;2.97;1.77;;;;;;;26.80;41.95;100790.72;5032420;28;20473;-63
2021/06/29 02:10:34;;;;;;;4.47;1.85;;;;;;;26.79;41.80;100788.25;5032179;28;20049;-63
2021/06/29 02:13:01;;;;;;;4.20;2.05;;;;;;;26.75;42.03;100778.91;5032235;28;20409;-63
2021/06/29 02:15:28;;;;;;;6.13;2.30;;;;;;;26.73;42.26;100788.00;5031780;28;20461;-63
2021/06/29 02:17:55;;;;;;;7.72;2.15;;;;;;;26.73;42.28;100788.00;5032028;28;20049;-63
2021/06/29 02:20:21;;;;;;;2.83;1.90;;;;;;;26.70;42.47;100782.97;5031998;28;20056;-63
2021/06/29 02:22:49;;;;;;;3.70;2.17;;;;;;;26.67;42.46;100791.41;5032017;28;20659;-63
2021/06/29 02:25:15;;;;;;;4.25;1.90;;;;;;;26.64;42.76;100799.03;5032193;28;20489;-63
2021/06/29 02:27:42;;;;;;;2.90;1.90;;;;;;;26.62;42.77;100793.03;5032131;28;20049;-63
2021/06/29 02:30:10;;;;;;;4.72;1.95;;;;;;;26.60;43.04;100795.06;5031998;28;20059;-63
2021/06/29 02:32:36;;;;;;;3.75;1.90;;;;;;;26.58;42.82;100795.28;5031802;28;20041;-63
2021/06/29 02:35:05;;;;;;;2.53;1.65;;;;;;;26.55;43.14;100793.78;5031736;28;20053;-63
2021/06/29 02:37:32;;;;;;;4.85;2.17;;;;;;;26.53;43.30;100793.13;5031865;28;20046;-63
2021/06/29 02:39:58;;;;;;;2.83;1.90;;;;;;;26.51;43.22;100795.22;5031983;28;20053;-64
2021/06/29 02:42:25;;;;;;;2.60;2.00;;;;;;;26.52;43.49;100798.72;5031807;28;20444;-63
2021/06/29 02:44:52;;;;;;;3.42;2.00;;;;;;;26.52;43.43;100802.22;5032039;28;20052;-63
2021/06/29 02:47:19;;;;;;;2.10;1.90;;;;;;;26.52;43.45;100796.03;5031786;28;20046;-63
2021/06/29 02:49:45;;;;;;;4.47;1.67;;;;;;;26.51;43.38;100795.22;5031701;28;20073;-64
2021/06/29 02:52:12;;;;;;;5.70;1.90;;;;;;;26.49;43.45;100799.94;5031807;28;20508;-63
2021/06/29 02:54:39;;;;;;;2.83;1.80;;;;;;;26.45;43.51;100804.03;5032520;28;20045;-64
2021/06/29 02:57:06;;;;;;;5.20;2.00;;;;;;;26.33;43.76;100808.25;5035373;28;20410;-63
2021/06/29 02:59:33;;;;;;;5.70;2.50;;;;;;;26.29;43.82;100821.22;5035034;28;20051;-63
2021/06/29 03:02:00;;;;;;;4.85;2.40;;;;;;;26.22;44.20;100821.16;5034172;28;20080;-64
2021/06/29 03:04:27;;;;;;;7.30;3.22;;;;;;;26.10;44.61;100825.34;5050129;28;20094;-64
2021/06/29 03:06:53;;;;;;;5.75;2.85;;;;;;;26.00;45.14;100825.59;5051725;28;20057;-63
2021/06/29 03:09:20;;;;;;;3.85;2.83;;;;;;;25.95;45.58;100829.88;5051769;28;20442;-64
2021/06/29 03:11:46;;;;;;;7.38;2.88;;;;;;;25.88;45.86;100832.50;5051502;28;20075;-64
2021/06/29 03:14:13;;;;;;;4.45;2.88;;;;;;;25.86;45.86;100829.16;5033236;28;20052;-63
2021/06/29 03:16:40;;;;;;;7.15;3.65;;;;;;;25.84;46.00;100825.78;5029955;28;20077;-63
2021/06/29 03:19:07;;;;;;;6.65;2.78;;;;;;;25.85;46.14;100831.00;5031388;28;20498;-63
2021/06/29 03:21:34;;;;;;;6.22;2.80;;;;;;;25.81;46.46;100836.94;5031314;28;20045;-63
2021/06/29 03:24:00;;;;;;;5.10;3.20;;;;;;;25.79;46.22;100845.19;5031725;28;20057;-63
2021/06/29 03:26:27;;;;;;;7.05;3.08;;;;;;;25.79;46.40;100849.72;5031386;28;20049;-63
2021/06/29 03:28:54;;;;;;;4.68;2.88;;;;;;;25.77;46.35;100838.34;5031609;28;20049;-63
2021/06/29 03:31:20;;;;;;;5.05;3.35;;;;;;;25.75;46.55;100835.84;5031296;28;20049;-63
2021/06/29 03:33:47;;;;;;;6.28;3.03;;;;;;;25.73;46.54;100836.00;5031254;28;20049;-64
2021/06/29 03:36:14;;;;;;;6.03;3.72;;;;;;;25.74;46.74;100836.84;5031158;28;20057;-63
2021/06/29 03:38:41;;;;;;;4.93;2.67;;;;;;;25.73;46.45;100827.94;5031159;28;20479;-63
2021/06/29 03:41:07;;;;;;;8.98;3.20;;;;;;;25.73;46.54;100832.50;5031058;28;20049;-63
2021/06/29 03:43:37;;;;;;;8.32;3.15;;;;;;;25.76;46.45;100840.16;5030916;28;20171;-63
2021/06/29 03:46:05;;;;;;;6.30;3.10;;;;;;;25.75;46.59;100839.34;5030990;28;20107;-63
2021/06/29 03:48:33;;;;;;;5.85;3.42;;;;;;;25.69;46.84;100845.47;5030915;28;20573;-63
2021/06/29 03:51:00;;;;;;;11.13;3.60;;;;;;;25.51;47.51;100847.66;5031192;28;20577;-63
2021/06/29 03:53:27;;;;;;;14.70;3.35;;;;;;;25.55;47.36;100839.03;5031035;28;20572;-63
2021/06/29 03:55:54;;;;;;;8.23;3.15;;;;;;;25.55;47.50;100836.38;5030824;28;20049;-63
2021/06/29 03:58:21;;;;;;;5.75;2.80;;;;;;;25.58;47.39;100833.31;5029492;28;20045;-63
2021/06/29 04:00:47;;;;;;;7.88;3.33;;;;;;;25.64;47.21;100839.81;5030743;28;20049;-63
2021/06/29 04:03:14;;;;;;;4.88;3.03;;;;;;;25.63;47.09;100834.63;5030748;28;20487;-63
2021/06/29 04:05:41;;;;;;;10.52;3.13;;;;;;;25.63;47.09;100832.75;5030406;28;20045;-63
2021/06/29 04:08:08;;;;;;;4.90;2.60;;;;;;;25.66;46.92;100834.22;5030632;28;20048;-63
2021/06/29 04:10:34;;;;;;;6.05;2.80;;;;;;;25.66;46.62;100831.53;5030458;28;20041;-63
2021/06/29 04:13:01;;;;;;;7.80;3.50;;;;;;;25.65;46.77;100836.09;5030577;28;20045;-63
2021/06/29 04:15:28;;;;;;;8.43;3.25;;;;;;;25.63;46.66;100832.75;5030403;28;20141;-63
2021/06/29 04:17:55;;;;;;;5.13;3.40;;;;;;;25.68;46.89;100835.72;5030227;28;20115;-63
2021/06/29 04:20:22;;;;;;;7.95;3.65;;;;;;;25.68;46.87;100833.03;5030180;28;20050;-63
2021/06/29 04:22:48;;;;;;;5.15;3.13;;;;;;;25.70;46.89;100831.00;5030444;28;20406;-63
2021/06/29 04:25:15;;;;;;;6.10;3.40;;;;;;;25.73;46.98;100836.00;5030440;28;20486;-63
2021/06/29 04:27:42;;;;;;;6.25;2.90;;;;;;;25.78;46.67;100832.75;5030179;28;20436;-63
2021/06/29 04:30:09;;;;;;;8.55;3.20;;;;;;;25.82;46.63;100838.59;5030408;28;20099;-63
2021/06/29 04:32:36;;;;;;;9.13;3.20;;;;;;;25.85;46.75;100825.63;5030102;28;20418;-63
2021/06/29 04:35:05;;;;;;;8.18;3.33;;;;;;;25.87;46.67;100823.56;5030053;28;20049;-63
2021/06/29 04:37:31;;;;;;;8.05;3.42;;;;;;;25.90;46.60;100823.22;5029848;28;20045;-63
2021/06/29 04:39:58;;;;;;;7.28;3.50;;;;;;;25.94;46.46;100828.22;5030076;28;20045;-63
2021/06/29 04:42:25;;;;;;;6.68;3.13;;;;;;;25.94;46.45;100818.31;5029879;28;20129;-63
2021/06/29 04:44:51;;;;;;;7.68;3.33;;;;;;;25.96;46.11;100818.13;5029948;28;20057;-63
2021/06/29 04:47:18;;;;;;;7.63;3.45;;;;;;;26.03;46.16;100827.94;5030060;28;20080;-63
2021/06/29 04:49:45;;;;;;;7.38;3.30;;;;;;;26.06;46.06;100827.56;5029819;28;20559;-63
2021/06/29 04:52:11;;;;;;;9.52;3.28;;;;;;;26.09;46.26;100839.81;5029853;28;20052;-64
2021/06/29 04:54:38;;;;;;;7.45;3.20;;;;;;;26.15;46.00;100839.06;5029718;28;20045;-63
2021/06/29 04:57:05;;;;;;;11.15;3.92;;;;;;;26.19;45.93;100843.03;5029668;28;20045;-63
2021/06/29 04:59:32;;;;;;;8.00;3.42;;;;;;;26.22;46.07;100844.53;5029590;28;20481;-63
2021/06/29 05:01:59;;;;;;;6.55;3.40;;;;;;;26.24;46.05;100846.03;5029939;28;20045;-63
2021/06/29 05:04:26;;;;;;;10.30;3.72;;;;;;;26.27;45.76;100843.97;5030972;28;20140;-63
2021/06/29 05:06:52;;;;;;;6.45;3.33;;;;;;;26.29;45.65;100842.75;5031988;28;20041;-63
2021/06/29 05:09:19;;;;;;;10.18;3.72;;;;;;;26.35;45.29;100846.56;5036461;28;20049;-63
2021/06/29 05:11:46;;;;;;;10.30;2.97;;;;;;;26.38;45.36;100847.00;5049635;28;20053;-64
2021/06/29 05:14:12;;;;;;;12.02;4.03;;;;;;;26.43;45.08;100853.69;5049414;28;20064;-64
2021/06/29 05:16:39;;;;;;;7.95;3.03;;;;;;;26.47;44.98;100852.28;5037653;28;20060;-64
2021/06/29 05:19:06;;;;;;;5.45;2.85;;;;;;;26.50;44.71;100839.28;5029356;28;20144;-64
2021/06/29 05:21:33;;;;;;;8.63;3.08;;;;;;;26.54;44.69;100837.88;5029213;28;20045;-64
2021/06/29 05:24:02;;;;;;;6.35;2.30;;;;;;;26.59;44.44;100837.31;5029280;28;20049;-64
2021/06/29 05:26:29;;;;;;;12.02;2.20;;;;;;;26.66;44.25;100837.38;5040165;28;20559;-65
2021/06/29 05:28:55;;;;;;;7.20;2.70;;;;;;;26.71;43.89;100833.06;5046308;28;20045;-64
2021/06/29 05:31:22;;;;;;;3.03;2.08;;;;;;;26.84;43.72;100834.28;5048164;28;20049;-64
2021/06/29 05:33:49;;;;;;;3.58;2.10;;;;;;;26.94;43.69;100832.09;5029522;28;20056;-64
2021/06/29 05:36:21;;;;;;;5.90;2.08;;;;;;;27.02;43.63;100841.88;5034216;28;20048;-64
2021/06/29 05:39:04;;;;;;;3.50;1.92;;;;;;;27.11;43.60;100843.44;5029111;28;20128;-67
2021/06/29 05:41:31;;;;;;;8.43;2.10;;;;;;;27.18;43.41;100840.78;5028862;28;20508;-65
2021/06/29 05:43:58;;;;;;;6.25;2.45;;;;;;;27.25;43.31;100841.69;5028869;28;20045;-66
2021/06/29 05:46:24;;;;;;;7.78;2.28;;;;;;;27.27;43.17;100852.25;5029026;28;20057;-64
2021/06/29 05:48:52;;;;;;;4.80;2.33;;;;;;;27.26;43.08;100850.59;5032801;28;20048;-65
2021/06/29 05:51:19;;;;;;;5.57;2.17;;;;;;;27.31;43.15;100854.38;5046251;28;20110;-64
2021/06/29 05:53:47;;;;;;;5.70;2.40;;;;;;;27.40;42.93;100849.72;5048536;28;20052;-64
2021/06/29 05:56:13;;;;;;;10.60;2.53;;;;;;;27.43;42.75;100841.22;5048543;28;20045;-64
2021/06/29 05:58:41;;;;;;;7.47;2.20;;;;;;;27.49;42.56;100850.38;5047768;28;20048;-66
2021/06/29 06:01:08;;;;;;;5.68;2.05;;;;;;;27.52;42.50;100858.91;5048088;28;20049;-65
2021/06/29 06:03:35;;;;;;;5.00;2.05;;;;;;;27.59;42.45;100852.72;5048389;28;20045;-66
2021/06/29 06:06:02;;;;;;;7.28;1.83;;;;;;;27.70;42.05;100858.41;5039475;28;20436;-66
2021/06/29 06:08:29;;;;;;;8.45;2.10;;;;;;;27.76;41.97;100854.09;5028741;28;20068;-65
2021/06/29 06:10:56;;;;;;;5.43;1.80;;;;;;;27.82;41.99;100856.00;5029123;28;20061;-65
2021/06/29 06:13:23;;;;;;;6.32;2.00;;;;;;;27.89;42.03;100856.03;5028534;28;20095;-65
2021/06/29 06:15:52;;;;;;;4.18;2.10;;;;;;;27.91;41.98;100856.69;5028443;28;20057;-65
2021/06/29 06:18:19;;;;;;;5.88;2.08;;;;;;;28.01;42.02;100859.84;5028530;28;20115;-65
2021/06/29 06:20:46;;;;;;;5.30;1.95;;;;;;;28.09;41.94;100848.06;5028273;28;20520;-66
2021/06/29 06:23:13;;;;;;;3.72;1.50;;;;;;;28.20;41.77;100852.06;5028584;28;20045;-66
2021/06/29 06:25:39;;;;;;;7.82;1.85;;;;;;;28.26;41.92;100840.44;5028477;28;20041;-65
2021/06/29 06:28:06;;;;;;;5.78;1.52;;;;;;;28.33;42.09;100841.31;5028928;28;20045;-65
2021/06/29 06:30:33;;;;;;;5.60;1.67;;;;;;;28.42;42.07;100846.56;5032389;28;20046;-65
2021/06/29 06:32:59;;;;;;;6.30;1.80;;;;;;;28.47;42.35;100847.59;5032190;28;20119;-65
2021/06/29 06:35:26;;;;;;;4.82;1.70;;;;;;;28.56;42.35;100860.94;5039093;28;20055;-65
2021/06/29 06:37:53;;;;;;;6.95;1.70;;;;;;;28.64;42.32;100863.41;5033667;28;20049;-65
2021/06/29 06:40:19;;;;;;;7.07;1.90;;;;;;;28.66;42.49;100859.50;5048583;28;20095;-65
2021/06/29 06:42:47;;;;;;;6.32;1.80;;;;;;;28.73;42.82;100866.81;5051048;28;20053;-65
2021/06/29 06:45:14;;;;;;;3.08;1.38;;;;;;;28.78;42.74;100870.53;5051966;28;20123;-65
2021/06/29 06:47:41;;;;;;;6.78;1.83;;;;;;;28.86;42.97;100868.69;5051869;28;20048;-65
2021/06/29 06:50:09;;;;;;;2.15;1.30;;;;;;;28.94;43.29;100863.94;5051790;28;20052;-65
2021/06/29 06:52:36;;;;;;;5.43;2.08;;;;;;;28.93;43.36;100859.56;5046434;28;20041;-65
2021/06/29 06:55:04;;;;;;;3.88;1.70;;;;;;;29.01;43.39;100861.22;5032023;28;20060;-65
2021/06/29 06:57:31;;;;;;;2.15;1.17;;;;;;;29.06;43.54;100856.03;5031558;28;20053;-65
2021/06/29 06:59:58;;;;;;;2.30;1.35;;;;;;;29.13;43.34;100850.66;5031897;28;20387;-65
2021/06/29 07:02:24;;;;;;;3.25;1.27;;;;;;;29.17;43.80;100849.19;5030416;28;20049;-65
2021/06/29 07:04:51;;;;;;;4.50;1.65;;;;;;;29.22;43.50;100838.59;5046347;28;20045;-65
2021/06/29 07:07:18;;;;;;;3.97;1.42;;;;;;;29.28;43.87;100834.22;5048782;28;20045;-64
2021/06/29 07:09:44;;;;;;;2.20;1.40;;;;;;;29.30;44.08;100827.56;5047874;28;20409;-65
2021/06/29 07:12:11;;;;;;;5.78;1.30;;;;;;;29.36;44.21;100836.72;5050834;28;20123;-65
2021/06/29 07:14:38;;;;;;;2.85;1.55;;;;;;;29.44;43.98;100832.97;5050916;28;20045;-66
2021/06/29 07:17:05;;;;;;;4.05;1.30;;;;;;;29.53;44.26;100833.59;5043593;28;20128;-64
2021/06/29 07:19:32;;;;;;;6.05;1.58;;;;;;;29.62;44.46;100835.03;5050856;28;20049;-67
2021/06/29 07:21:58;;;;;;;5.53;1.60;;;;;;;29.64;44.15;100838.34;5051211;28;20063;-64
2021/06/29 07:24:25;;;;;;;2.20;1.50;;;;;;;29.70;44.19;100839.38;5050831;28;20052;-65
2021/06/29 07:26:51;;;;;;;5.22;1.55;;;;;;;29.80;44.32;100832.50;5045043;28;20045;-64
2021/06/29 07:29:19;;;;;;;5.95;1.85;;;;;;;29.87;44.36;100835.16;5030943;28;20049;-65
2021/06/29 07:31:45;;;;;;;4.32;1.70;;;;;;;29.89;44.94;100846.66;5033182;28;20045;-65
2021/06/29 07:34:12;;;;;;;1.77;1.27;;;;;;;29.96;44.88;100844.72;5050996;28;20052;-65
2021/06/29 07:36:39;;;;;;;1.88;1.48;;;;;;;30.04;44.56;100843.69;5050951;28;20056;-65
2021/06/29 07:39:06;;;;;;;2.80;1.33;;;;;;;30.12;44.64;100839.91;5050059;28;20043;-66
2021/06/29 07:41:33;;;;;;;6.53;1.67;;;;;;;30.19;44.64;100834.47;5049066;28;20049;-65
2021/06/29 07:43:59;;;;;;;2.55;1.27;;;;;;;30.24;45.09;100829.22;5049853;28;20494;-65
2021/06/29 07:46:26;;;;;;;5.65;1.27;;;;;;;30.33;44.98;100827.09;5049972;28;20053;-66
2021/06/29 07:48:53;;;;;;;2.90;1.33;;;;;;;30.38;44.95;100833.50;5050133;28;20401;-65
2021/06/29 07:51:20;;;;;;;2.83;1.15;;;;;;;30.48;44.86;100830.38;5050292;28;20049;-65
2021/06/29 07:53:47;;;;;;;4.45;1.40;;;;;;;30.58;44.69;100830.72;5049236;28;20053;-65
2021/06/29 07:56:14;;;;;;;3.13;1.00;;;;;;;30.65;44.45;100830.69;5050280;28;20094;-66
2021/06/29 07:58:45;;;;;;;2.75;1.05;;;;;;;30.64;44.29;100829.03;5049571;28;20056;-65
2021/06/29 08:01:14;;;;;;;2.13;1.25;;;;;;;30.74;44.02;100821.25;5049522;28;20048;-65
2021/06/29 08:03:41;;;;;;;7.28;1.17;;;;;;;30.78;43.98;100808.94;5049804;28;20049;-65
2021/06/29 08:06:09;;;;;;;3.85;1.50;;;;;;;30.87;43.60;100823.03;5049870;28;20045;-65
2021/06/29 08:08:36;;;;;;;4.43;1.00;;;;;;;30.97;43.13;100819.84;5049558;28;20079;-65
2021/06/29 08:11:05;;;;;;;4.07;1.73;;;;;;;31.03;42.93;100810.84;5047977;28;20045;-65
2021/06/29 08:13:32;;;;;;;3.03;1.20;;;;;;;31.08;42.73;100816.44;5030026;28;20061;-65
2021/06/29 08:16:00;;;;;;;2.20;1.30;;;;;;;31.17;42.37;100814.25;5029746;28;20046;-65
2021/06/29 08:18:30;;;;;;;2.92;1.45;;;;;;;31.30;42.41;100809.75;5046558;28;20436;-66
2021/06/29 08:20:58;;;;;;;4.35;1.50;;;;;;;31.42;42.31;100808.81;5049258;28;20047;-65
2021/06/29 08:23:26;;;;;;;3.03;1.10;;;;;;;31.52;41.46;100804.75;5049462;28;20049;-63
2021/06/29 08:25:53;;;;;;;2.58;1.20;;;;;;;31.52;41.06;100789.31;5049413;28;20041;-65
2021/06/29 08:28:20;;;;;;;3.17;1.02;;;;;;;31.65;40.57;100788.34;5043690;28;20490;-65
2021/06/29 08:30:47;;;;;;;3.63;0.90;;;;;;;31.69;40.29;100795.00;5037877;28;20079;-64
2021/06/29 08:33:14;;;;;;;3.15;1.10;;;;;;;31.74;40.43;100786.16;5049195;28;20119;-63
2021/06/29 08:35:43;;;;;;;6.15;1.33;;;;;;;31.79;39.35;100799.06;5049113;28;20049;-65
2021/06/29 08:38:12;;;;;;;3.30;1.30;;;;;;;31.87;38.66;100802.31;5048888;28;20056;-63
2021/06/29 08:40:40;;;;;;;3.53;1.40;;;;;;;31.92;38.74;100807.03;5048591;28;20056;-64
2021/06/29 08:43:08;;;;;;;2.92;1.10;;;;;;;31.99;38.54;100809.69;5046619;28;20047;-65
2021/06/29 08:45:36;;;;;;;4.65;1.10;;;;;;;32.17;37.57;100806.09;5047015;28;20425;-66
2021/06/29 08:48:03;;;;;;;0.80;0.77;;;;;;;32.31;36.87;100806.78;5049670;28;20045;-62
2021/06/29 08:50:31;;;;;;;1.55;0.93;;;;;;;32.38;36.57;100802.09;5049040;28;20049;-62
2021/06/29 08:53:00;;;;;;;1.90;0.90;;;;;;;32.44;36.66;100801.13;5048738;28;20045;-61
2021/06/29 08:55:31;;;;;;;4.15;1.10;;;;;;;32.53;36.03;100790.78;5048973;28;20049;-62
2021/06/29 08:57:58;;;;;;;2.33;1.10;;;;;;;32.53;35.65;100798.91;5049200;28;20399;-63
2021/06/29 09:00:25;;;;;;;4.80;1.20;;;;;;;32.53;35.45;100791.63;5041336;28;20140;-62
2021/06/29 09:02:52;;;;;;;4.00;1.05;;;;;;;32.71;35.23;100796.13;5029302;28;20462;-61
2021/06/29 09:05:28;;;;;;;3.42;1.00;;;;;;;32.75;34.92;100792.97;5029280;28;20049;-62
2021/06/29 09:08:08;;;;;;;1.83;1.05;;;;;;;32.86;33.83;100794.88;5029187;28;20045;-62
2021/06/29 09:10:37;;;;;;;2.97;1.30;;;;;;;32.98;33.74;100792.19;5047614;28;20053;-62
2021/06/29 09:13:05;;;;;;;6.95;2.00;;;;;;;33.07;32.86;100789.94;5048736;28;20405;-63
2021/06/29 09:15:35;;;;;;;3.88;1.20;;;;;;;33.15;33.01;100779.53;5047262;28;20048;-62
2021/06/29 09:18:05;;;;;;;2.45;1.10;;;;;;;33.21;32.52;100781.28;5047879;28;20057;-64
2021/06/29 09:20:41;;;;;;;3.97;1.20;;;;;;;33.25;32.21;100772.69;5048644;28;20053;-61
2021/06/29 09:23:26;;;;;;;6.95;1.58;;;;;;;33.27;32.00;100771.38;5048804;28;20366;-63
2021/06/29 09:26:13;;;;;;;4.15;1.50;;;;;;;33.40;31.36;100756.72;5048591;28;20532;-63
2021/06/29 09:29:00;;;;;;;4.05;1.45;;;;;;;33.47;31.96;100759.31;5048729;28;20059;-61
2021/06/29 09:31:33;;;;;;;4.18;1.30;;;;;;;33.47;31.76;100745.69;5047483;28;20078;-63
2021/06/29 09:34:03;;;;;;;3.70;1.63;;;;;;;33.53;32.00;100742.88;5045481;28;20131;-63
2021/06/29 09:36:35;;;;;;;4.65;1.95;;;;;;;33.54;31.90;100743.69;5048548;28;20053;-62
2021/06/29 09:39:08;;;;;;;5.70;1.88;;;;;;;33.66;32.29;100741.75;5048298;28;20409;-63
2021/06/29 09:41:37;;;;;;;3.17;1.20;;;;;;;33.75;31.88;100741.38;5048652;28;20382;-63
2021/06/29 09:44:07;;;;;;;5.47;1.40;;;;;;;33.77;31.63;100747.41;5048670;28;20055;-62
2021/06/29 09:46:38;;;;;;;5.15;2.05;;;;;;;33.76;32.01;100741.13;5048062;28;20049;-61
2021/06/29 09:49:13;;;;;;;3.35;1.63;;;;;;;33.83;31.87;100732.84;5048340;28;20049;-61
2021/06/29 09:51:49;;;;;;;3.30;1.20;;;;;;;33.90;31.43;100738.16;5048359;28;20052;-62
2021/06/29 09:54:15;;;;;;;1.42;1.10;;;;;;;33.99;31.39;100737.53;5047753;28;20080;-62
2021/06/29 09:56:47;;;;;;;2.92;1.33;;;;;;;34.10;31.27;100733.06;5045732;28;20056;-62
2021/06/29 09:59:26;;;;;;;2.85;1.17;;;;;;;34.19;30.64;100736.22;5044450;28;20125;-62
2021/06/29 10:02:05;;;;;;;2.65;1.40;;;;;;;34.07;31.25;100743.63;5028335;28;20403;-62
2021/06/29 10:04:33;;;;;;;5.05;1.20;;;;;;;34.25;30.54;100742.63;5049186;28;20573;-63
2021/06/29 10:07:13;;;;;;;4.30;1.20;;;;;;;34.39;30.99;100738.53;5051776;28;20102;-62
2021/06/29 10:09:40;;;;;;;5.10;1.23;;;;;;;34.42;30.62;100753.53;5052101;28;20041;-61
2021/06/29 10:12:07;;;;;;;2.47;1.10;;;;;;;34.42;30.86;100756.28;5052128;28;20558;-62
2021/06/29 10:14:35;;;;;;;4.00;1.38;;;;;;;34.46;30.25;100757.44;5051908;28;20049;-61
2021/06/29 10:17:04;;;;;;;2.35;1.20;;;;;;;34.56;30.78;100760.31;5051534;28;20053;-62
2021/06/29 10:22:03;;;;;;;5.32;1.45;;;;;;;34.36;30.58;100760.81;5051381;28;20094;-61
2021/06/29 10:24:36;;;;;;;2.50;1.20;;;;;;;34.31;30.72;100756.06;5051574;28;20052;-62
2021/06/29 10:27:08;;;;;;;3.58;1.45;;;;;;;34.33;30.59;100755.81;5043301;28;20065;-62
2021/06/29 10:29:36;;;;;;;2.90;1.15;;;;;;;34.43;30.34;100755.22;5031722;28;20056;-63
2021/06/29 10:32:07;;;;;;;1.40;1.30;;;;;;;34.40;31.10;100752.97;5032574;28;20053;-61
2021/06/29 10:34:34;;;;;;;3.67;1.30;;;;;;;34.56;30.80;100751.31;5040771;28;20053;-62
2021/06/29 10:37:04;;;;;;;3.67;1.23;;;;;;;34.60;30.85;100752.47;5051496;28;20123;-62
2021/06/29 10:39:33;;;;;;;2.25;1.10;;;;;;;34.70;30.91;100743.66;5040458;28;20046;-63
2021/06/29 10:42:10;;;;;;;4.28;1.17;;;;;;;34.78;30.77;100744.06;5034980;28;20091;-62
2021/06/29 10:44:40;;;;;;;5.68;1.65;;;;;;;34.88;30.90;100734.41;5046625;28;20468;-62
2021/06/29 10:47:29;;;;;;;1.85;1.60;;;;;;;34.79;30.66;100734.81;5040780;28;20037;-61
2021/06/29 10:49:58;;;;;;;3.38;1.52;;;;;;;34.96;31.05;100736.72;5043405;28;20045;-61
2021/06/29 10:52:25;;;;;;;6.32;1.42;;;;;;;34.95;31.10;100738.59;5051794;28;20049;-63
2021/06/29 10:54:55;;;;;;;3.83;1.38;;;;;;;34.81;30.56;100731.81;5051270;28;20091;-62
2021/06/29 10:57:39;;;;;;;3.42;1.42;;;;;;;34.71;30.50;100734.41;5049106;28;20053;-64
2021/06/29 11:00:21;;;;;;;3.08;1.00;;;;;;;34.79;30.20;100737.53;5051205;28;20132;-62
2021/06/29 11:02:59;;;;;;;3.28;1.58;;;;;;;34.71;30.21;100740.66;5051642;28;20056;-62
2021/06/29 11:05:29;;;;;;;3.25;1.10;;;;;;;34.82;30.37;100741.66;5050698;28;20045;-61
2021/06/29 11:08:06;;;;;;;5.07;1.45;;;;;;;34.66;30.77;100738.72;5051108;28;20055;-61
2021/06/29 11:10:36;;;;;;;4.95;1.30;;;;;;;34.56;30.50;100729.53;5042610;28;20464;-62
2021/06/29 11:13:05;;;;;;;5.65;1.30;;;;;;;34.38;30.69;100739.59;5031487;28;20067;-62
2021/06/29 11:15:39;;;;;;;3.55;1.00;;;;;;;34.42;30.56;100729.03;5029764;28;20191;-62
2021/06/29 11:18:06;;;;;;;3.75;1.17;;;;;;;34.62;30.27;100720.34;5031159;28;20057;-62
2021/06/29 11:20:46;;;;;;;1.75;1.00;;;;;;;34.65;30.04;100723.41;5030410;28;20060;-61
2021/06/29 11:23:25;;;;;;;2.25;0.85;;;;;;;34.67;29.25;100728.63;5030908;28;20053;-61
2021/06/29 11:25:57;;;;;;;3.22;1.00;;;;;;;34.83;28.34;100730.50;5030653;28;20490;-61
2021/06/29 11:28:49;;;;;;;4.25;1.13;;;;;;;34.93;27.89;100723.56;5030985;28;20069;-61
2021/06/29 11:31:19;;;;;;;4.38;1.25;;;;;;;34.95;27.63;100727.69;5030453;28;20045;-61
2021/06/29 11:33:54;;;;;;;5.05;0.98;;;;;;;35.03;27.17;100712.81;5030075;28;20132;-62
2021/06/29 11:36:23;;;;;;;3.42;1.08;;;;;;;35.21;27.05;100713.59;5030852;28;20504;-61
2021/06/29 11:39:21;;;;;;;2.20;0.80;;;;;;;35.44;26.47;100713.38;5045056;28;20102;-62